sensor_id;sensor_type;location;lat;lon;timestamp;pressure;altitude;pressure_sealevel;temperature;humidity
69035;BME280;56091;55.756;37.412;2023-05-03T00:00:03;99191.28;;;8.43;44.26
69035;BME280;56091;55.756;37.412;2023-05-03T00:05:09;99195.69;;;8.49;44.38
69035;BME280;56091;55.756;37.412;2023-05-03T00:10:12;99194.13;;;8.53;44.08
69035;BME280;56091;55.756;37.412;2023-05-03T00:15:15;99180.44;;;8.54;44.26
69035;BME280;56091;55.756;37.412;2023-05-03T00:20:16;99185.03;;;8.54;44.37
69035;BME280;56091;55.756;37.412;2023-05-03T00:25:18;99176.88;;;8.49;44.52
69035;BME280;56091;55.756;37.412;2023-05-03T00:30:19;99175.78;;;8.50;45.00
69035;BME280;56091;55.756;37.412;2023-05-03T00:35:21;99164.84;;;8.39;45.12
69035;BME280;56091;55.756;37.412;2023-05-03T00:40:22;99170.13;;;8.34;45.29
69035;BME280;56091;55.756;37.412;2023-05-03T00:45:22;99153.19;;;8.34;45.10
69035;BME280;56091;55.756;37.412;2023-05-03T00:50:23;99137.47;;;8.26;45.42
69035;BME280;56091;55.756;37.412;2023-05-03T00:55:25;99136.16;;;8.28;45.49
69035;BME280;56091;55.756;37.412;2023-05-03T01:00:31;99126.50;;;8.27;45.32
69035;BME280;56091;55.756;37.412;2023-05-03T01:05:39;99112.88;;;8.34;45.24
69035;BME280;56091;55.756;37.412;2023-05-03T01:21:17;99110.66;;;8.43;45.40
69035;BME280;56091;55.756;37.412;2023-05-03T01:26:19;99105.47;;;8.41;45.08
69035;BME280;56091;55.756;37.412;2023-05-03T01:31:59;99096.13;;;8.44;45.21
69035;BME280;56091;55.756;37.412;2023-05-03T01:36:58;99103.97;;;8.45;45.18
69035;BME280;56091;55.756;37.412;2023-05-03T01:42:02;99069.56;;;8.30;45.16
69035;BME280;56091;55.756;37.412;2023-05-03T01:47:04;99093.44;;;8.44;44.92
69035;BME280;56091;55.756;37.412;2023-05-03T01:52:06;99101.25;;;8.45;45.08
69035;BME280;56091;55.756;37.412;2023-05-03T01:57:09;99082.44;;;8.45;45.82
69035;BME280;56091;55.756;37.412;2023-05-03T02:02:10;99091.88;;;8.48;45.57
69035;BME280;56091;55.756;37.412;2023-05-03T02:07:11;99090.59;;;8.50;45.53
69035;BME280;56091;55.756;37.412;2023-05-03T02:12:12;99092.72;;;8.48;45.73
69035;BME280;56091;55.756;37.412;2023-05-03T02:17:13;99086.44;;;8.43;46.03
69035;BME280;56091;55.756;37.412;2023-05-03T02:22:24;99079.53;;;8.47;45.61
69035;BME280;56091;55.756;37.412;2023-05-03T02:27:25;99071.13;;;8.43;45.68
69035;BME280;56091;55.756;37.412;2023-05-03T02:32:26;99063.69;;;8.33;45.38
69035;BME280;56091;55.756;37.412;2023-05-03T02:37:27;99089.19;;;8.48;45.37
69035;BME280;56091;55.756;37.412;2023-05-03T02:42:28;99078.28;;;8.54;45.63
69035;BME280;56091;55.756;37.412;2023-05-03T02:47:29;99076.50;;;8.60;45.29
69035;BME280;56091;55.756;37.412;2023-05-03T02:52:30;99077.28;;;8.60;45.62
69035;BME280;56091;55.756;37.412;2023-05-03T02:57:31;99080.63;;;8.68;45.42
69035;BME280;56091;55.756;37.412;2023-05-03T03:02:32;99097.69;;;8.56;45.74
69035;BME280;56091;55.756;37.412;2023-05-03T03:07:33;99092.53;;;8.55;45.85
69035;BME280;56091;55.756;37.412;2023-05-03T03:12:35;99090.94;;;8.54;45.81
69035;BME280;56091;55.756;37.412;2023-05-03T03:17:39;99105.19;;;8.54;46.19
69035;BME280;56091;55.756;37.412;2023-05-03T03:22:45;99097.53;;;8.46;46.26
69035;BME280;56091;55.756;37.412;2023-05-03T03:27:47;99103.22;;;8.50;46.27
69035;BME280;56091;55.756;37.412;2023-05-03T03:32:48;99103.63;;;8.58;46.14
69035;BME280;56091;55.756;37.412;2023-05-03T03:37:57;99098.13;;;8.70;46.15
69035;BME280;56091;55.756;37.412;2023-05-03T03:42:58;99099.13;;;8.64;46.03
69035;BME280;56091;55.756;37.412;2023-05-03T03:48:00;99121.84;;;8.73;47.90
69035;BME280;56091;55.756;37.412;2023-05-03T03:53:03;99124.16;;;8.48;53.59
69035;BME280;56091;55.756;37.412;2023-05-03T03:58:04;99124.56;;;7.94;59.46
69035;BME280;56091;55.756;37.412;2023-05-03T04:03:07;99118.28;;;7.59;61.46
69035;BME280;56091;55.756;37.412;2023-05-03T04:08:08;99127.16;;;7.89;59.41
69035;BME280;56091;55.756;37.412;2023-05-03T04:13:10;99123.44;;;8.07;57.62
69035;BME280;56091;55.756;37.412;2023-05-03T04:18:12;99125.31;;;8.23;56.47
69035;BME280;56091;55.756;37.412;2023-05-03T04:23:15;99128.19;;;8.33;55.67
69035;BME280;56091;55.756;37.412;2023-05-03T04:28:16;99102.69;;;8.19;56.47
69035;BME280;56091;55.756;37.412;2023-05-03T04:33:21;99137.97;;;8.39;57.26
69035;BME280;56091;55.756;37.412;2023-05-03T04:38:22;99148.84;;;8.45;57.48
69035;BME280;56091;55.756;37.412;2023-05-03T04:43:26;99147.84;;;8.51;57.25
69035;BME280;56091;55.756;37.412;2023-05-03T04:48:28;99160.06;;;8.58;58.05
69035;BME280;56091;55.756;37.412;2023-05-03T04:53:29;99142.25;;;8.52;57.98
69035;BME280;56091;55.756;37.412;2023-05-03T04:58:52;99147.94;;;8.90;57.74
69035;BME280;56091;55.756;37.412;2023-05-03T05:03:54;99155.53;;;9.15;56.08
69035;BME280;56091;55.756;37.412;2023-05-03T05:09:01;99147.38;;;9.10;56.16
69035;BME280;56091;55.756;37.412;2023-05-03T05:14:07;99144.53;;;9.16;54.79
69035;BME280;56091;55.756;37.412;2023-05-03T05:19:08;99156.88;;;9.34;54.82
69035;BME280;56091;55.756;37.412;2023-05-03T05:24:08;99160.44;;;9.40;55.02
69035;BME280;56091;55.756;37.412;2023-05-03T05:29:10;99143.28;;;9.68;55.34
69035;BME280;56091;55.756;37.412;2023-05-03T05:34:31;99137.84;;;10.18;54.05
69035;BME280;56091;55.756;37.412;2023-05-03T05:39:32;99149.81;;;10.27;53.94
69035;BME280;56091;55.756;37.412;2023-05-03T05:44:34;99162.09;;;10.40;53.92
69035;BME280;56091;55.756;37.412;2023-05-03T05:49:35;99152.34;;;10.39;54.27
69035;BME280;56091;55.756;37.412;2023-05-03T05:54:37;99150.56;;;10.49;53.58
69035;BME280;56091;55.756;37.412;2023-05-03T05:59:39;99149.44;;;10.18;55.04
69035;BME280;56091;55.756;37.412;2023-05-03T06:04:40;99162.09;;;10.45;54.56
69035;BME280;56091;55.756;37.412;2023-05-03T06:09:41;99162.22;;;10.55;54.62
69035;BME280;56091;55.756;37.412;2023-05-03T06:14:43;99165.53;;;10.67;53.58
69035;BME280;56091;55.756;37.412;2023-05-03T06:19:44;99178.09;;;11.31;52.67
69035;BME280;56091;55.756;37.412;2023-05-03T06:24:45;99170.38;;;11.56;51.04
69035;BME280;56091;55.756;37.412;2023-05-03T06:29:46;99172.47;;;12.01;50.24
69035;BME280;56091;55.756;37.412;2023-05-03T06:34:49;99182.47;;;12.06;49.15
69035;BME280;56091;55.756;37.412;2023-05-03T06:39:51;99183.53;;;11.89;49.79
69035;BME280;56091;55.756;37.412;2023-05-03T06:44:53;99174.41;;;12.26;49.78
69035;BME280;56091;55.756;37.412;2023-05-03T06:49:54;99182.78;;;12.25;49.31
69035;BME280;56091;55.756;37.412;2023-05-03T06:54:55;99172.75;;;12.25;49.23
69035;BME280;56091;55.756;37.412;2023-05-03T06:59:59;99179.81;;;12.32;48.87
69035;BME280;56091;55.756;37.412;2023-05-03T07:04:59;99172.22;;;12.18;49.36
69035;BME280;56091;55.756;37.412;2023-05-03T07:10:01;99205.78;;;12.38;49.09
69035;BME280;56091;55.756;37.412;2023-05-03T07:15:06;99200.91;;;12.40;48.73
69035;BME280;56091;55.756;37.412;2023-05-03T07:20:07;99190.63;;;12.93;47.48
69035;BME280;56091;55.756;37.412;2023-05-03T07:25:08;99202.84;;;12.96;47.44
69035;BME280;56091;55.756;37.412;2023-05-03T07:30:12;99198.69;;;13.50;46.36
69035;BME280;56091;55.756;37.412;2023-05-03T07:35:13;99203.63;;;14.02;45.42
69035;BME280;56091;55.756;37.412;2023-05-03T07:40:14;99207.84;;;14.19;44.11
69035;BME280;56091;55.756;37.412;2023-05-03T07:45:15;99215.81;;;14.50;44.14
69035;BME280;56091;55.756;37.412;2023-05-03T07:50:16;99220.91;;;14.56;44.12
69035;BME280;56091;55.756;37.412;2023-05-03T07:55:18;99235.63;;;14.50;44.12
69035;BME280;56091;55.756;37.412;2023-05-03T08:00:20;99234.31;;;13.93;45.98
69035;BME280;56091;55.756;37.412;2023-05-03T08:05:22;99238.72;;;13.73;46.12
69035;BME280;56091;55.756;37.412;2023-05-03T08:10:23;99256.97;;;13.42;46.40
69035;BME280;56091;55.756;37.412;2023-05-03T08:15:26;99246.94;;;13.37;48.56
69035;BME280;56091;55.756;37.412;2023-05-03T08:20:28;99258.31;;;13.44;49.38
69035;BME280;56091;55.756;37.412;2023-05-03T08:25:30;99262.09;;;13.38;50.75
69035;BME280;56091;55.756;37.412;2023-05-03T08:30:32;99269.69;;;13.31;52.51
69035;BME280;56091;55.756;37.412;2023-05-03T08:35:32;99277.03;;;13.31;55.77
69035;BME280;56091;55.756;37.412;2023-05-03T08:40:35;99261.84;;;13.04;56.39
69035;BME280;56091;55.756;37.412;2023-05-03T08:45:39;99236.66;;;12.88;57.00
69035;BME280;56091;55.756;37.412;2023-05-03T08:50:40;99237.16;;;13.26;56.00
69035;BME280;56091;55.756;37.412;2023-05-03T08:55:46;99237.16;;;13.52;53.70
69035;BME280;56091;55.756;37.412;2023-05-03T09:00:47;99251.56;;;14.12;51.77
69035;BME280;56091;55.756;37.412;2023-05-03T09:05:48;99256.81;;;14.43;50.86
69035;BME280;56091;55.756;37.412;2023-05-03T09:10:49;99273.28;;;14.07;51.44
69035;BME280;56091;55.756;37.412;2023-05-03T09:15:53;99266.88;;;14.42;50.80
69035;BME280;56091;55.756;37.412;2023-05-03T09:20:54;99263.88;;;14.89;48.47
69035;BME280;56091;55.756;37.412;2023-05-03T09:25:56;99258.84;;;15.06;47.45
69035;BME280;56091;55.756;37.412;2023-05-03T09:31:04;99269.53;;;15.27;46.69
69035;BME280;56091;55.756;37.412;2023-05-03T09:36:06;99282.41;;;15.45;46.61
69035;BME280;56091;55.756;37.412;2023-05-03T09:41:10;99303.94;;;14.68;48.21
69035;BME280;56091;55.756;37.412;2023-05-03T09:46:12;99302.91;;;13.88;49.03
69035;BME280;56091;55.756;37.412;2023-05-03T09:51:13;99300.84;;;13.44;50.18
69035;BME280;56091;55.756;37.412;2023-05-03T09:56:14;99302.69;;;13.79;50.33
69035;BME280;56091;55.756;37.412;2023-05-03T10:01:16;99281.00;;;13.79;49.44
69035;BME280;56091;55.756;37.412;2023-05-03T10:06:37;99288.94;;;14.31;48.82
69035;BME280;56091;55.756;37.412;2023-05-03T10:11:43;99307.56;;;14.48;49.02
69035;BME280;56091;55.756;37.412;2023-05-03T10:16:49;99296.38;;;14.64;48.75
69035;BME280;56091;55.756;37.412;2023-05-03T10:22:02;99301.34;;;14.92;47.77
69035;BME280;56091;55.756;37.412;2023-05-03T10:27:06;99306.44;;;14.98;47.36
69035;BME280;56091;55.756;37.412;2023-05-03T10:32:33;99298.75;;;15.40;46.93
69035;BME280;56091;55.756;37.412;2023-05-03T10:37:35;99299.56;;;15.40;47.36
69035;BME280;56091;55.756;37.412;2023-05-03T10:42:48;99302.84;;;15.96;45.85
69035;BME280;56091;55.756;37.412;2023-05-03T10:58:45;99310.91;;;15.48;46.35
69035;BME280;56091;55.756;37.412;2023-05-03T11:04:05;99294.50;;;15.29;46.65
69035;BME280;56091;55.756;37.412;2023-05-03T11:09:09;99301.44;;;15.16;46.87
69035;BME280;56091;55.756;37.412;2023-05-03T11:14:14;99308.53;;;14.72;47.76
69035;BME280;56091;55.756;37.412;2023-05-03T11:19:15;99315.38;;;14.59;48.63
69035;BME280;56091;55.756;37.412;2023-05-03T11:24:16;99303.31;;;14.76;47.90
69035;BME280;56091;55.756;37.412;2023-05-03T11:29:17;99280.56;;;14.72;47.79
69035;BME280;56091;55.756;37.412;2023-05-03T11:34:18;99304.53;;;14.99;47.49
69035;BME280;56091;55.756;37.412;2023-05-03T11:39:22;99291.19;;;15.37;46.30
69035;BME280;56091;55.756;37.412;2023-05-03T11:44:25;99277.56;;;15.66;45.00
69035;BME280;56091;55.756;37.412;2023-05-03T11:49:26;99312.75;;;15.23;45.48
69035;BME280;56091;55.756;37.412;2023-05-03T11:54:27;99284.78;;;15.52;45.63
69035;BME280;56091;55.756;37.412;2023-05-03T11:59:39;99278.13;;;15.39;45.20
69035;BME280;56091;55.756;37.412;2023-05-03T12:04:43;99306.72;;;15.31;45.82
69035;BME280;56091;55.756;37.412;2023-05-03T12:09:44;99308.44;;;14.88;47.29
69035;BME280;56091;55.756;37.412;2023-05-03T12:14:59;99315.72;;;14.92;47.15
69035;BME280;56091;55.756;37.412;2023-05-03T12:20:20;99305.84;;;15.07;47.29
69035;BME280;56091;55.756;37.412;2023-05-03T12:25:22;99297.53;;;15.27;46.77
69035;BME280;56091;55.756;37.412;2023-05-03T12:30:23;99310.16;;;15.08;46.71
69035;BME280;56091;55.756;37.412;2023-05-03T12:35:24;99301.28;;;15.31;45.66
69035;BME280;56091;55.756;37.412;2023-05-03T12:40:25;99309.38;;;15.95;43.81
69035;BME280;56091;55.756;37.412;2023-05-03T12:45:27;99292.47;;;16.22;43.12
69035;BME280;56091;55.756;37.412;2023-05-03T12:50:31;99302.25;;;15.75;43.91
69035;BME280;56091;55.756;37.412;2023-05-03T12:55:32;99288.19;;;15.62;41.74
69035;BME280;56091;55.756;37.412;2023-05-03T13:00:34;99309.53;;;15.79;42.07
69035;BME280;56091;55.756;37.412;2023-05-03T13:05:34;99281.75;;;16.07;42.06
69035;BME280;56091;55.756;37.412;2023-05-03T13:10:36;99307.53;;;15.90;41.97
69035;BME280;56091;55.756;37.412;2023-05-03T13:15:38;99299.84;;;15.68;43.52
69035;BME280;56091;55.756;37.412;2023-05-03T13:20:46;99298.22;;;15.09;45.37
69035;BME280;56091;55.756;37.412;2023-05-03T13:25:48;99245.84;;;14.69;45.67
69035;BME280;56091;55.756;37.412;2023-05-03T13:30:53;99321.19;;;16.09;44.32
69035;BME280;56091;55.756;37.412;2023-05-03T13:35:54;99299.97;;;16.30;44.43
69035;BME280;56091;55.756;37.412;2023-05-03T13:40:58;99311.72;;;15.77;45.28
69035;BME280;56091;55.756;37.412;2023-05-03T13:46:00;99315.22;;;15.83;44.70
69035;BME280;56091;55.756;37.412;2023-05-03T13:51:09;99304.06;;;15.21;44.89
69035;BME280;56091;55.756;37.412;2023-05-03T13:56:09;99306.72;;;14.97;45.89
69035;BME280;56091;55.756;37.412;2023-05-03T14:01:10;99315.63;;;15.95;44.14
69035;BME280;56091;55.756;37.412;2023-05-03T14:06:14;99298.66;;;16.28;43.60
69035;BME280;56091;55.756;37.412;2023-05-03T14:11:16;99317.88;;;15.59;45.73
69035;BME280;56091;55.756;37.412;2023-05-03T14:16:19;99321.41;;;15.30;46.16
69035;BME280;56091;55.756;37.412;2023-05-03T14:21:20;99300.78;;;15.29;46.70
69035;BME280;56091;55.756;37.412;2023-05-03T14:26:21;99309.44;;;14.97;46.76
69035;BME280;56091;55.756;37.412;2023-05-03T14:31:26;99287.16;;;14.55;47.83
69035;BME280;56091;55.756;37.412;2023-05-03T14:36:27;99313.78;;;14.48;48.49
69035;BME280;56091;55.756;37.412;2023-05-03T14:41:35;99323.53;;;14.54;48.57
69035;BME280;56091;55.756;37.412;2023-05-03T14:46:36;99300.19;;;14.53;49.34
69035;BME280;56091;55.756;37.412;2023-05-03T14:51:37;99306.34;;;14.14;50.83
69035;BME280;56091;55.756;37.412;2023-05-03T14:56:38;99313.22;;;13.96;51.53
69035;BME280;56091;55.756;37.412;2023-05-03T15:01:39;99310.00;;;13.74;52.51
69035;BME280;56091;55.756;37.412;2023-05-03T15:06:48;99323.03;;;13.66;53.29
69035;BME280;56091;55.756;37.412;2023-05-03T15:11:49;99329.81;;;13.59;53.46
69035;BME280;56091;55.756;37.412;2023-05-03T15:16:49;99331.47;;;13.39;53.69
69035;BME280;56091;55.756;37.412;2023-05-03T15:21:50;99336.91;;;13.39;53.91
69035;BME280;56091;55.756;37.412;2023-05-03T15:26:54;99317.03;;;13.70;53.26
69035;BME280;56091;55.756;37.412;2023-05-03T15:31:55;99332.88;;;14.33;52.28
69035;BME280;56091;55.756;37.412;2023-05-03T15:36:55;99327.97;;;14.35;52.93
69035;BME280;56091;55.756;37.412;2023-05-03T15:41:59;99343.56;;;13.93;54.89
69035;BME280;56091;55.756;37.412;2023-05-03T15:47:00;99340.13;;;13.46;56.38
69035;BME280;56091;55.756;37.412;2023-05-03T15:52:01;99340.91;;;13.11;57.20
69035;BME280;56091;55.756;37.412;2023-05-03T15:57:03;99348.47;;;12.99;57.75
69035;BME280;56091;55.756;37.412;2023-05-03T16:02:05;99353.59;;;12.80;58.38
69035;BME280;56091;55.756;37.412;2023-05-03T16:07:09;99352.19;;;12.67;58.90
69035;BME280;56091;55.756;37.412;2023-05-03T16:12:10;99375.41;;;12.47;59.87
69035;BME280;56091;55.756;37.412;2023-05-03T16:17:11;99377.00;;;12.38;60.90
69035;BME280;56091;55.756;37.412;2023-05-03T16:22:12;99374.44;;;12.11;61.37
69035;BME280;56091;55.756;37.412;2023-05-03T16:27:13;99376.06;;;12.07;61.48
69035;BME280;56091;55.756;37.412;2023-05-03T16:32:14;99386.56;;;12.03;61.76
69035;BME280;56091;55.756;37.412;2023-05-03T16:37:15;99386.44;;;11.88;62.52
69035;BME280;56091;55.756;37.412;2023-05-03T16:42:16;99399.50;;;11.64;63.79
69035;BME280;56091;55.756;37.412;2023-05-03T16:47:18;99408.00;;;11.45;64.20
69035;BME280;56091;55.756;37.412;2023-05-03T16:52:19;99411.38;;;11.30;66.13
69035;BME280;56091;55.756;37.412;2023-05-03T16:57:20;99417.06;;;11.29;66.89
69035;BME280;56091;55.756;37.412;2023-05-03T17:02:21;99429.38;;;11.20;66.37
69035;BME280;56091;55.756;37.412;2023-05-03T17:07:24;99412.81;;;11.11;66.50
69035;BME280;56091;55.756;37.412;2023-05-03T17:12:26;99433.31;;;11.07;64.90
69035;BME280;56091;55.756;37.412;2023-05-03T17:17:30;99423.53;;;11.01;64.44
69035;BME280;56091;55.756;37.412;2023-05-03T17:22:31;99440.22;;;10.98;63.96
69035;BME280;56091;55.756;37.412;2023-05-03T17:27:33;99451.78;;;10.93;63.75
69035;BME280;56091;55.756;37.412;2023-05-03T17:32:33;99459.50;;;10.84;64.15
69035;BME280;56091;55.756;37.412;2023-05-03T17:37:34;99458.63;;;10.79;64.54
69035;BME280;56091;55.756;37.412;2023-05-03T17:42:35;99470.75;;;10.76;64.35
69035;BME280;56091;55.756;37.412;2023-05-03T17:47:36;99482.47;;;10.65;65.72
69035;BME280;56091;55.756;37.412;2023-05-03T17:52:37;99494.72;;;10.33;62.33
69035;BME280;56091;55.756;37.412;2023-05-03T17:57:39;99502.41;;;9.91;63.03
69035;BME280;56091;55.756;37.412;2023-05-03T18:02:43;99521.97;;;9.69;53.61
69035;BME280;56091;55.756;37.412;2023-05-03T18:07:44;99521.06;;;9.47;51.73
69035;BME280;56091;55.756;37.412;2023-05-03T18:12:45;99526.97;;;9.32;53.37
69035;BME280;56091;55.756;37.412;2023-05-03T18:17:46;99517.69;;;8.99;55.69
69035;BME280;56091;55.756;37.412;2023-05-03T18:22:47;99519.28;;;8.83;57.48
69035;BME280;56091;55.756;37.412;2023-05-03T18:27:49;99527.59;;;8.70;59.11
69035;BME280;56091;55.756;37.412;2023-05-03T18:32:50;99522.59;;;8.62;61.66
69035;BME280;56091;55.756;37.412;2023-05-03T18:37:53;99527.97;;;8.62;59.91
69035;BME280;56091;55.756;37.412;2023-05-03T18:42:54;99502.94;;;8.73;60.82
69035;BME280;56091;55.756;37.412;2023-05-03T18:47:55;99492.56;;;8.93;61.68
69035;BME280;56091;55.756;37.412;2023-05-03T18:52:56;99492.34;;;8.95;57.74
69035;BME280;56091;55.756;37.412;2023-05-03T18:57:59;99492.78;;;9.04;61.89
69035;BME280;56091;55.756;37.412;2023-05-03T19:03:00;99485.91;;;8.96;63.02
69035;BME280;56091;55.756;37.412;2023-05-03T19:08:01;99416.25;;;8.42;60.97
69035;BME280;56091;55.756;37.412;2023-05-03T19:13:02;99513.16;;;8.88;65.97
69035;BME280;56091;55.756;37.412;2023-05-03T19:18:03;99524.81;;;8.76;65.63
69035;BME280;56091;55.756;37.412;2023-05-03T19:23:04;99510.53;;;8.64;67.05
69035;BME280;56091;55.756;37.412;2023-05-03T19:28:05;99502.25;;;8.54;64.75
69035;BME280;56091;55.756;37.412;2023-05-03T19:33:07;99509.41;;;8.48;65.76
69035;BME280;56091;55.756;37.412;2023-05-03T19:38:08;99519.88;;;8.38;62.89
69035;BME280;56091;55.756;37.412;2023-05-03T19:43:08;99527.94;;;8.26;57.97
69035;BME280;56091;55.756;37.412;2023-05-03T19:48:09;99543.03;;;8.27;57.76
69035;BME280;56091;55.756;37.412;2023-05-03T19:53:11;99527.09;;;8.02;58.89
69035;BME280;56091;55.756;37.412;2023-05-03T19:58:12;99546.75;;;8.02;60.42
69035;BME280;56091;55.756;37.412;2023-05-03T20:03:13;99551.50;;;7.89;62.05
69035;BME280;56091;55.756;37.412;2023-05-03T20:08:14;99569.25;;;7.90;62.64
69035;BME280;56091;55.756;37.412;2023-05-03T20:13:17;99580.09;;;7.83;63.86
69035;BME280;56091;55.756;37.412;2023-05-03T20:18:18;99578.16;;;7.60;65.62
69035;BME280;56091;55.756;37.412;2023-05-03T20:23:19;99583.84;;;7.52;67.23
69035;BME280;56091;55.756;37.412;2023-05-03T20:28:20;99594.28;;;7.41;66.52
69035;BME280;56091;55.756;37.412;2023-05-03T20:33:24;99590.75;;;7.29;65.51
69035;BME280;56091;55.756;37.412;2023-05-03T20:38:25;99596.19;;;7.22;63.46
69035;BME280;56091;55.756;37.412;2023-05-03T20:43:26;99606.78;;;7.17;63.11
69035;BME280;56091;55.756;37.412;2023-05-03T20:48:27;99603.56;;;7.09;63.42
69035;BME280;56091;55.756;37.412;2023-05-03T20:53:28;99605.66;;;7.07;61.74
69035;BME280;56091;55.756;37.412;2023-05-03T20:58:29;99600.97;;;7.02;61.75
69035;BME280;56091;55.756;37.412;2023-05-03T21:03:29;99612.44;;;7.09;60.66
69035;BME280;56091;55.756;37.412;2023-05-03T21:08:31;99612.00;;;7.12;62.93
69035;BME280;56091;55.756;37.412;2023-05-03T21:13:32;99609.16;;;7.07;60.40
69035;BME280;56091;55.756;37.412;2023-05-03T21:18:35;99603.41;;;7.03;58.93
69035;BME280;56091;55.756;37.412;2023-05-03T21:23:35;99604.25;;;7.04;59.82
69035;BME280;56091;55.756;37.412;2023-05-03T21:28:36;99599.63;;;6.93;59.63
69035;BME280;56091;55.756;37.412;2023-05-03T21:33:37;99620.09;;;7.06;63.42
69035;BME280;56091;55.756;37.412;2023-05-03T21:38:39;99619.00;;;6.95;59.04
69035;BME280;56091;55.756;37.412;2023-05-03T21:43:42;99626.44;;;6.93;57.80
69035;BME280;56091;55.756;37.412;2023-05-03T21:48:44;99626.50;;;6.86;60.24
69035;BME280;56091;55.756;37.412;2023-05-03T21:53:48;99632.53;;;6.81;58.96
69035;BME280;56091;55.756;37.412;2023-05-03T21:58:49;99605.16;;;6.54;64.11
69035;BME280;56091;55.756;37.412;2023-05-03T22:03:50;99638.47;;;6.65;61.28
69035;BME280;56091;55.756;37.412;2023-05-03T22:08:50;99643.06;;;6.58;62.71
69035;BME280;56091;55.756;37.412;2023-05-03T22:13:51;99657.53;;;6.57;63.57
69035;BME280;56091;55.756;37.412;2023-05-03T22:18:52;99637.38;;;6.48;60.87
69035;BME280;56091;55.756;37.412;2023-05-03T22:23:53;99639.50;;;6.39;62.12
69035;BME280;56091;55.756;37.412;2023-05-03T22:28:53;99643.66;;;6.35;58.46
69035;BME280;56091;55.756;37.412;2023-05-03T22:33:54;99640.78;;;6.36;55.85
69035;BME280;56091;55.756;37.412;2023-05-03T22:38:56;99645.75;;;6.33;59.95
69035;BME280;56091;55.756;37.412;2023-05-03T22:44:03;99644.97;;;6.25;57.45
69035;BME280;56091;55.756;37.412;2023-05-03T22:49:04;99657.81;;;6.17;58.22
69035;BME280;56091;55.756;37.412;2023-05-03T22:54:05;99653.91;;;6.13;60.77
69035;BME280;56091;55.756;37.412;2023-05-03T22:59:05;99618.41;;;5.92;61.27
69035;BME280;56091;55.756;37.412;2023-05-03T23:04:10;99658.72;;;6.04;60.90
69035;BME280;56091;55.756;37.412;2023-05-03T23:09:11;99660.81;;;5.95;59.94
69035;BME280;56091;55.756;37.412;2023-05-03T23:14:13;99645.88;;;5.81;58.91
69035;BME280;56091;55.756;37.412;2023-05-03T23:19:14;99666.84;;;5.84;59.34
69035;BME280;56091;55.756;37.412;2023-05-03T23:24:14;99668.97;;;5.75;59.47
69035;BME280;56091;55.756;37.412;2023-05-03T23:29:15;99677.25;;;5.60;60.51
69035;BME280;56091;55.756;37.412;2023-05-03T23:34:16;99672.34;;;5.51;61.05
69035;BME280;56091;55.756;37.412;2023-05-03T23:39:18;99669.34;;;5.34;59.50
69035;BME280;56091;55.756;37.412;2023-05-03T23:44:18;99675.53;;;5.27;57.77
69035;BME280;56091;55.756;37.412;2023-05-03T23:49:19;99672.44;;;5.24;59.32
69035;BME280;56091;55.756;37.412;2023-05-03T23:54:20;99671.84;;;5.15;57.02
69035;BME280;56091;55.756;37.412;2023-05-03T23:59:21;99670.66;;;4.98;57.98
